createdAt,value
2022-10-08T00:02:03.393Z,67.40
2022-10-08T00:04:36.169Z,70.30
2022-10-08T00:07:09.171Z,73.50
2022-10-08T00:09:43.621Z,67.80
2022-10-08T00:12:16.497Z,66.10
2022-10-08T00:14:52.702Z,68.50
2022-10-08T00:17:24.550Z,70.70
2022-10-08T00:20:00.410Z,71.00
2022-10-08T00:22:35.028Z,75.90
2022-10-08T00:25:10.187Z,75.20
2022-10-08T00:27:44.170Z,84.20
2022-10-08T00:30:19.838Z,72.90
2022-10-08T00:32:57.709Z,72.70
2022-10-08T00:35:31.887Z,71.80
2022-10-08T00:38:07.827Z,74.50
2022-10-08T00:40:47.962Z,79.70
2022-10-08T00:43:37.212Z,77.80
2022-10-08T00:46:11.332Z,73.80
2022-10-08T00:48:44.923Z,72.90
2022-10-08T00:51:17.187Z,77.70
2022-10-08T00:53:50.940Z,75.20
2022-10-08T00:56:23.342Z,78.00
2022-10-08T00:58:58.097Z,81.10
2022-10-08T01:01:30.789Z,78.10
2022-10-08T01:04:06.744Z,80.20
2022-10-08T01:06:45.255Z,77.90
2022-10-08T01:09:21.709Z,73.20
2022-10-08T01:11:58.439Z,71.70
2022-10-08T01:14:40.384Z,70.80
2022-10-08T01:17:17.424Z,73.30
2022-10-08T01:20:19.239Z,73.40
2022-10-08T01:23:10.487Z,78.80
2022-10-08T01:25:50.698Z,80.40
2022-10-08T01:28:30.143Z,76.10
2022-10-08T01:31:08.127Z,74.70
2022-10-08T01:33:46.688Z,71.90
2022-10-08T01:36:20.945Z,79.10
2022-10-08T01:38:56.434Z,79.80
2022-10-08T01:41:31.251Z,81.70
2022-10-08T01:44:08.706Z,78.60
2022-10-08T01:46:45.327Z,75.10
2022-10-08T01:49:23.175Z,77.90
2022-10-08T01:52:01.771Z,79.50
2022-10-08T01:54:36.678Z,77.50
2022-10-08T01:57:10.577Z,74.60
2022-10-08T01:59:47.430Z,78.00
2022-10-08T02:02:23.671Z,82.80
2022-10-08T02:04:59.279Z,75.40
2022-10-08T02:07:37.381Z,79.80
2022-10-08T02:10:13.031Z,69.20
2022-10-08T02:12:45.876Z,70.50
2022-10-08T02:15:21.451Z,69.90
2022-10-08T02:17:57.797Z,86.80
2022-10-08T02:20:36.042Z,84.30
2022-10-08T02:23:15.167Z,83.10
2022-10-08T02:25:53.753Z,80.90
2022-10-08T02:28:30.975Z,75.80
2022-10-08T02:31:10.589Z,70.30
2022-10-08T02:33:45.761Z,78.50
2022-10-08T02:36:22.083Z,76.30
2022-10-08T02:38:58.981Z,76.90
2022-10-08T02:41:35.214Z,73.90
2022-10-08T02:44:18.440Z,76.90
2022-10-08T02:46:52.923Z,73.70
2022-10-08T02:49:30.387Z,73.40
2022-10-08T02:52:04.320Z,69.10
2022-10-08T02:54:39.621Z,69.00
2022-10-08T02:57:14.795Z,68.60
2022-10-08T02:59:48.388Z,72.30
2022-10-08T03:02:26.386Z,74.90
2022-10-08T03:05:02.714Z,77.90
2022-10-08T03:07:39.328Z,84.70
2022-10-08T03:10:13.191Z,85.30
2022-10-08T03:12:48.462Z,75.60
2022-10-08T03:15:21.875Z,73.60
2022-10-08T03:17:54.449Z,79.20
2022-10-08T03:20:30.351Z,77.90
2022-10-08T03:23:06.197Z,80.50
2022-10-08T03:25:40.994Z,79.80
2022-10-08T03:28:15.360Z,79.80
2022-10-08T03:30:49.715Z,66.90
2022-10-08T03:33:23.834Z,68.50
2022-10-08T03:35:55.963Z,71.00
2022-10-08T03:38:29.512Z,70.00
2022-10-08T03:41:05.612Z,70.60
2022-10-08T03:43:44.422Z,73.00
2022-10-08T03:46:19.195Z,73.50
2022-10-08T03:48:52.913Z,71.50
2022-10-08T03:51:26.557Z,68.70
2022-10-08T03:53:59.237Z,65.90
2022-10-08T03:56:33.291Z,66.50
2022-10-08T03:59:05.804Z,68.80
2022-10-08T04:01:38.541Z,67.40
2022-10-08T04:04:11.133Z,75.10
2022-10-08T04:06:45.808Z,67.90
2022-10-08T04:09:18.032Z,68.40
2022-10-08T04:11:51.986Z,68.30
2022-10-08T04:14:25.182Z,70.80
2022-10-08T04:17:00.343Z,77.00
2022-10-08T04:19:33.206Z,74.30
2022-10-08T04:22:05.743Z,77.30
2022-10-08T04:24:37.987Z,86.50
2022-10-08T04:27:09.800Z,96.10
2022-10-08T04:29:42.288Z,96.90
2022-10-08T04:32:14.226Z,90.90
2022-10-08T04:34:46.664Z,94.10
2022-10-08T04:37:20.415Z,90.20
2022-10-08T04:39:53.132Z,87.90
2022-10-08T04:42:27.030Z,85.20
2022-10-08T04:44:59.365Z,85.80
2022-10-08T04:47:33.432Z,85.00
2022-10-08T04:50:07.490Z,77.40
2022-10-08T04:52:41.092Z,84.80
2022-10-08T04:55:15.959Z,99.80
2022-10-08T04:57:51.719Z,88.80
2022-10-08T05:00:24.764Z,81.10
2022-10-08T05:02:59.277Z,81.00
2022-10-08T05:05:32.123Z,81.80
2022-10-08T05:08:05.880Z,90.50
2022-10-08T05:10:38.890Z,88.10
2022-10-08T05:13:11.066Z,87.20
2022-10-08T05:15:44.049Z,82.90
2022-10-08T05:18:17.546Z,84.60
2022-10-08T05:20:52.687Z,75.10
2022-10-08T05:23:24.976Z,80.10
2022-10-08T05:25:56.866Z,102.70
2022-10-08T05:28:30.604Z,85.30
2022-10-08T05:31:08.658Z,97.80
2022-10-08T05:33:41.488Z,86.10
2022-10-08T05:36:19.064Z,73.20
2022-10-08T05:38:59.065Z,73.40
2022-10-08T05:41:35.324Z,72.10
2022-10-08T05:44:09.760Z,65.90
2022-10-08T05:46:43.865Z,64.60
2022-10-08T05:49:20.993Z,69.90
2022-10-08T05:51:55.192Z,58.90
2022-10-08T05:54:27.871Z,73.70
2022-10-08T05:57:01.480Z,77.80
2022-10-08T05:59:34.196Z,61.00
2022-10-08T06:02:10.266Z,51.30
2022-10-08T06:04:43.814Z,47.80
2022-10-08T06:07:16.534Z,44.30
2022-10-08T06:09:52.333Z,48.70
2022-10-08T06:12:25.556Z,42.30
2022-10-08T06:14:59.594Z,39.90
2022-10-08T06:17:34.747Z,38.70
2022-10-08T06:20:09.663Z,37.90
2022-10-08T06:22:43.244Z,36.20
2022-10-08T06:25:17.617Z,37.60
2022-10-08T06:27:52.266Z,36.20
2022-10-08T06:30:27.996Z,38.40
2022-10-08T06:33:07.046Z,34.80
2022-10-08T06:35:40.198Z,35.20
2022-10-08T06:38:13.828Z,36.10
2022-10-08T06:40:47.024Z,36.80
2022-10-08T06:43:22.013Z,40.40
2022-10-08T06:45:55.616Z,36.70
2022-10-08T06:48:29.239Z,36.50
2022-10-08T06:51:06.304Z,36.80
2022-10-08T06:53:40.199Z,36.90
2022-10-08T06:56:19.264Z,36.00
2022-10-08T06:58:51.585Z,35.70
2022-10-08T07:01:31.855Z,35.70
2022-10-08T07:04:08.781Z,34.30
2022-10-08T07:06:41.904Z,35.00
2022-10-08T07:09:15.490Z,32.70
2022-10-08T07:11:48.426Z,31.80
2022-10-08T07:14:24.171Z,31.90
2022-10-08T07:16:57.254Z,32.50
2022-10-08T07:19:30.860Z,32.30
2022-10-08T07:22:03.777Z,29.90
2022-10-08T07:24:36.177Z,31.30
2022-10-08T07:27:09.972Z,29.80
2022-10-08T07:29:43.502Z,33.60
2022-10-08T07:32:17.156Z,32.50
2022-10-08T07:34:50.717Z,32.70
2022-10-08T07:37:23.139Z,33.70
2022-10-08T07:39:59.886Z,31.40
2022-10-08T07:42:32.794Z,29.70
2022-10-08T07:45:05.767Z,30.60
2022-10-08T07:47:39.375Z,29.60
2022-10-08T07:50:12.513Z,30.00
2022-10-08T07:52:45.292Z,30.00
2022-10-08T07:55:19.663Z,30.60
2022-10-08T07:57:52.723Z,29.10
2022-10-08T08:00:27.542Z,29.90
2022-10-08T08:03:00.348Z,27.10
2022-10-08T08:05:37.236Z,26.40
2022-10-08T08:08:09.617Z,26.10
2022-10-08T08:10:45.333Z,26.60
2022-10-08T08:13:18.132Z,24.80
2022-10-08T08:15:59.943Z,23.40
2022-10-08T08:18:34.461Z,22.80
2022-10-08T08:21:10.122Z,22.60
2022-10-08T08:23:47.950Z,19.60
2022-10-08T08:26:23.457Z,19.50
2022-10-08T08:28:58.173Z,14.70
2022-10-08T08:31:32.523Z,13.70
2022-10-08T08:34:08.026Z,11.90
2022-10-08T08:36:42.019Z,12.80
2022-10-08T08:39:18.851Z,11.80
2022-10-08T08:42:14.609Z,11.40
2022-10-08T08:44:48.708Z,9.90
2022-10-08T08:47:24.045Z,9.30
2022-10-08T08:49:59.174Z,9.90
2022-10-08T08:52:34.193Z,9.20
2022-10-08T08:55:12.825Z,8.70
2022-10-08T08:57:51.294Z,8.80
2022-10-08T09:00:36.305Z,9.00
2022-10-08T09:03:15.476Z,13.20
2022-10-08T09:05:49.713Z,9.10
2022-10-08T09:08:25.428Z,9.00
2022-10-08T09:11:00.635Z,9.00
2022-10-08T09:13:37.740Z,10.80
2022-10-08T09:16:12.888Z,10.40
2022-10-08T09:18:52.187Z,9.00
2022-10-08T09:21:28.336Z,9.60
2022-10-08T09:24:00.876Z,10.50
2022-10-08T09:26:35.892Z,9.60
2022-10-08T09:29:09.654Z,14.60
2022-10-08T09:31:48.905Z,10.40
2022-10-08T09:34:23.001Z,15.10
2022-10-08T09:37:06.479Z,17.10
2022-10-08T09:39:39.770Z,11.50
2022-10-08T09:42:18.305Z,10.90
2022-10-08T09:44:51.973Z,12.90
2022-10-08T09:47:25.880Z,12.80
2022-10-08T09:50:14.845Z,10.20
2022-10-08T09:52:47.772Z,10.50
2022-10-08T09:55:24.058Z,14.60
2022-10-08T09:58:00.560Z,10.80
2022-10-08T10:00:36.253Z,10.90
2022-10-08T10:03:19.450Z,12.80
2022-10-08T10:05:56.994Z,11.50
2022-10-08T10:09:07.208Z,13.20
2022-10-08T10:11:42.874Z,10.70
2022-10-08T10:14:21.758Z,11.00
2022-10-08T10:16:59.938Z,13.00
2022-10-08T10:19:45.063Z,17.10
2022-10-08T10:22:24.638Z,16.70
2022-10-08T10:25:04.541Z,13.70
2022-10-08T10:27:39.633Z,12.30
2022-10-08T10:30:19.129Z,12.00
2022-10-08T10:32:54.726Z,13.00
2022-10-08T10:35:28.572Z,12.90
2022-10-08T10:38:10.162Z,12.00
2022-10-08T10:40:46.181Z,14.80
2022-10-08T10:43:25.395Z,15.30
2022-10-08T10:46:16.385Z,13.10
2022-10-08T10:48:50.816Z,14.70
2022-10-08T10:51:54.565Z,15.40
2022-10-08T10:54:46.985Z,14.50
2022-10-08T10:57:31.020Z,15.90
2022-10-08T11:00:10.273Z,15.90
2022-10-08T11:02:48.100Z,14.10
2022-10-08T11:05:24.327Z,13.50
2022-10-08T11:08:15.509Z,13.20
2022-10-08T11:11:00.623Z,15.00
2022-10-08T11:13:47.316Z,13.50
2022-10-08T11:16:36.658Z,14.60
2022-10-08T11:19:17.527Z,13.70
2022-10-08T11:21:58.694Z,16.20
2022-10-08T11:24:42.397Z,14.80
2022-10-08T11:27:19.637Z,15.00
2022-10-08T11:29:56.752Z,12.70
2022-10-08T11:32:31.038Z,12.70
2022-10-08T11:35:18.965Z,14.20
2022-10-08T11:37:56.202Z,13.10
2022-10-08T11:40:32.306Z,12.90
2022-10-08T11:43:08.805Z,11.60
2022-10-08T11:45:47.092Z,12.70
2022-10-08T11:48:36.743Z,13.00
2022-10-08T11:51:30.350Z,11.20
2022-10-08T11:54:08.422Z,11.50
2022-10-08T11:56:44.484Z,10.60
2022-10-08T11:59:40.645Z,10.80
2022-10-08T12:02:25.853Z,10.80
2022-10-08T12:05:00.396Z,10.40
2022-10-08T12:07:37.803Z,9.50
2022-10-08T12:10:29.705Z,9.90
2022-10-08T12:13:24.467Z,10.70
2022-10-08T12:16:08.283Z,9.90
2022-10-08T12:18:52.724Z,11.60
2022-10-08T12:21:55.440Z,9.60
2022-10-08T12:24:58.839Z,9.70
2022-10-08T12:27:34.669Z,9.60
2022-10-08T12:30:09.729Z,9.20
2022-10-08T12:33:00.872Z,9.70
2022-10-08T12:35:38.807Z,10.40
2022-10-08T12:38:31.677Z,11.00
2022-10-08T12:41:16.022Z,9.50
2022-10-08T12:43:53.361Z,12.20
2022-10-08T12:46:34.692Z,11.20
2022-10-08T12:49:20.245Z,21.90
2022-10-08T12:51:59.640Z,10.70
2022-10-08T12:54:35.579Z,11.00
2022-10-08T12:57:13.597Z,11.80
2022-10-08T12:59:49.815Z,9.90
2022-10-08T13:02:40.274Z,10.10
2022-10-08T13:05:27.662Z,11.20
2022-10-08T13:08:12.016Z,11.70
2022-10-08T13:10:46.896Z,10.40
2022-10-08T13:13:45.022Z,10.80
2022-10-08T13:16:18.294Z,10.20
2022-10-08T13:18:53.760Z,9.90
2022-10-08T13:21:42.520Z,11.00
2022-10-08T13:24:38.243Z,11.60
2022-10-08T13:27:25.771Z,11.30
2022-10-08T13:30:01.468Z,13.50
2022-10-08T13:32:40.482Z,10.80
2022-10-08T13:35:23.698Z,12.20
2022-10-08T13:37:58.546Z,23.70
2022-10-08T13:40:31.621Z,14.20
2022-10-08T13:43:03.969Z,17.70
2022-10-08T13:45:42.143Z,20.60
2022-10-08T13:48:16.268Z,17.90
2022-10-08T13:50:52.550Z,13.10
2022-10-08T13:53:42.449Z,12.20
2022-10-08T13:56:23.357Z,12.50
2022-10-08T13:59:03.041Z,12.10
2022-10-08T14:01:35.104Z,12.30
2022-10-08T14:04:07.489Z,13.00
2022-10-08T14:06:40.111Z,13.20
2022-10-08T14:09:18.838Z,12.80
2022-10-08T14:11:56.330Z,13.30
2022-10-08T14:14:30.521Z,18.50
2022-10-08T14:17:05.234Z,16.70
2022-10-08T14:19:37.195Z,13.30
2022-10-08T14:22:14.101Z,12.60
2022-10-08T14:24:47.298Z,16.70
2022-10-08T14:27:19.960Z,14.80
2022-10-08T14:29:53.279Z,15.20
2022-10-08T14:32:27.140Z,12.20
2022-10-08T14:34:59.748Z,14.10
2022-10-08T14:37:31.613Z,14.90
2022-10-08T14:40:10.250Z,12.90
2022-10-08T14:42:42.716Z,13.10
2022-10-08T14:45:16.700Z,13.30
2022-10-08T14:47:53.053Z,13.30
2022-10-08T14:50:26.928Z,12.80
2022-10-08T14:53:00.783Z,14.60
2022-10-08T14:55:40.961Z,12.90
2022-10-08T14:58:23.674Z,13.00
2022-10-08T15:00:59.320Z,14.00
2022-10-08T15:03:31.838Z,15.10
2022-10-08T15:06:05.137Z,16.50
2022-10-08T15:08:41.242Z,14.50
2022-10-08T15:11:14.062Z,14.30
2022-10-08T15:13:46.843Z,14.20
2022-10-08T15:16:19.341Z,14.70
2022-10-08T15:18:51.689Z,15.20
2022-10-08T15:21:24.648Z,14.50
2022-10-08T15:23:59.190Z,15.20
2022-10-08T15:26:33.106Z,15.30
2022-10-08T15:29:05.833Z,15.30
2022-10-08T15:31:37.925Z,15.20
2022-10-08T15:34:14.227Z,16.60
2022-10-08T15:36:46.715Z,15.80
2022-10-08T15:39:23.341Z,15.60
2022-10-08T15:42:00.991Z,16.20
2022-10-08T15:44:34.987Z,17.30
2022-10-08T15:47:11.849Z,18.10
2022-10-08T15:49:45.912Z,18.30
2022-10-08T15:52:19.923Z,17.30
2022-10-08T15:54:52.171Z,18.10
2022-10-08T15:57:24.585Z,18.10
2022-10-08T15:59:58.400Z,18.50
2022-10-08T16:02:33.181Z,23.30
2022-10-08T16:05:06.166Z,24.60
2022-10-08T16:07:39.156Z,31.90
2022-10-08T16:10:11.661Z,21.90
2022-10-08T16:12:43.730Z,25.90
2022-10-08T16:15:15.580Z,34.40
2022-10-08T16:17:51.931Z,24.10
2022-10-08T16:20:24.382Z,26.80
2022-10-08T16:22:57.371Z,23.70
2022-10-08T16:25:29.374Z,28.00
2022-10-08T16:28:01.392Z,50.10
2022-10-08T16:30:37.717Z,27.20
2022-10-08T16:33:09.702Z,43.30
2022-10-08T16:35:42.113Z,31.70
2022-10-08T16:38:15.000Z,25.60
2022-10-08T16:40:48.917Z,25.60
2022-10-08T16:43:25.777Z,24.70
2022-10-08T16:45:58.331Z,47.60
2022-10-08T16:48:33.612Z,44.00
2022-10-08T16:51:08.536Z,31.40
2022-10-08T16:53:41.155Z,48.40
2022-10-08T16:56:13.289Z,35.60
2022-10-08T16:58:46.174Z,37.10
2022-10-08T17:01:19.408Z,39.20
2022-10-08T17:03:54.231Z,32.90
2022-10-08T17:06:28.260Z,34.10
2022-10-08T17:09:00.737Z,29.10
2022-10-08T17:11:34.752Z,31.90
2022-10-08T17:14:08.460Z,30.20
2022-10-08T17:16:43.449Z,28.50
2022-10-08T17:19:18.178Z,27.20
2022-10-08T17:21:52.085Z,28.20
2022-10-08T17:24:26.049Z,28.40
2022-10-08T17:26:58.857Z,27.20
2022-10-08T17:29:36.215Z,29.50
2022-10-08T17:32:09.605Z,29.60
2022-10-08T17:34:42.412Z,33.90
2022-10-08T17:37:15.730Z,32.00
2022-10-08T17:39:47.522Z,40.90
2022-10-08T17:42:21.361Z,33.30
2022-10-08T17:44:55.873Z,36.00
2022-10-08T17:47:29.410Z,36.50
2022-10-08T17:50:04.539Z,31.80
2022-10-08T17:52:36.967Z,32.30
2022-10-08T17:55:16.624Z,33.00
2022-10-08T17:57:51.727Z,35.20
2022-10-08T18:00:26.165Z,36.60
2022-10-08T18:02:58.767Z,41.80
2022-10-08T18:05:30.704Z,36.20
2022-10-08T18:08:03.882Z,34.90
2022-10-08T18:10:40.251Z,33.70
2022-10-08T18:13:12.796Z,33.20
2022-10-08T18:15:45.500Z,33.20
2022-10-08T18:18:18.191Z,33.10
2022-10-08T18:20:58.380Z,34.40
2022-10-08T18:23:31.225Z,33.40
2022-10-08T18:26:19.630Z,33.20
2022-10-08T18:28:52.671Z,31.60
2022-10-08T18:31:27.370Z,31.80
2022-10-08T18:34:03.895Z,31.40
2022-10-08T18:36:43.558Z,31.20
2022-10-08T18:39:17.707Z,31.60
2022-10-08T18:41:57.322Z,29.90
2022-10-08T18:44:32.433Z,30.70
2022-10-08T18:47:05.619Z,31.10
2022-10-08T18:49:40.221Z,30.70
2022-10-08T18:52:19.139Z,32.80
2022-10-08T18:54:53.993Z,32.70
2022-10-08T18:57:25.998Z,33.70
2022-10-08T18:59:59.050Z,32.80
2022-10-08T19:02:35.461Z,33.60
2022-10-08T19:05:12.181Z,33.90
2022-10-08T19:07:46.651Z,34.10
2022-10-08T19:10:19.587Z,34.70
2022-10-08T19:12:54.442Z,35.80
2022-10-08T19:15:33.497Z,34.40
2022-10-08T19:18:07.733Z,36.10
2022-10-08T19:20:39.657Z,34.90
2022-10-08T19:23:16.421Z,34.50
2022-10-08T19:25:48.501Z,39.60
2022-10-08T19:28:25.215Z,37.90
2022-10-08T19:30:58.727Z,35.30
2022-10-08T19:33:31.415Z,37.60
2022-10-08T19:36:06.341Z,36.80
2022-10-08T19:38:40.489Z,37.40
2022-10-08T19:41:14.247Z,36.90
2022-10-08T19:43:48.704Z,37.90
2022-10-08T19:46:23.314Z,44.60
2022-10-08T19:48:59.062Z,41.80
2022-10-08T19:51:32.956Z,43.40
2022-10-08T19:54:06.330Z,43.10
2022-10-08T19:56:42.730Z,51.80
2022-10-08T19:59:19.419Z,45.30
2022-10-08T20:01:52.182Z,48.10
2022-10-08T20:04:24.704Z,44.40
2022-10-08T20:07:02.597Z,43.40
2022-10-08T20:09:37.522Z,44.30
2022-10-08T20:12:11.280Z,43.70
2022-10-08T20:14:43.410Z,45.40
2022-10-08T20:17:20.504Z,47.40
2022-10-08T20:20:09.357Z,45.90
2022-10-08T20:22:51.458Z,48.10
2022-10-08T20:25:25.298Z,48.70
2022-10-08T20:27:58.965Z,46.30
2022-10-08T20:30:30.888Z,50.00
2022-10-08T20:33:04.036Z,48.80
2022-10-08T20:35:40.229Z,45.00
2022-10-08T20:38:13.858Z,45.60
2022-10-08T20:40:46.850Z,46.60
2022-10-08T20:43:20.054Z,45.20
2022-10-08T20:45:53.522Z,45.70
2022-10-08T20:48:25.679Z,45.60
2022-10-08T20:51:07.218Z,45.50
2022-10-08T20:53:40.300Z,43.50
2022-10-08T20:56:15.005Z,47.20
2022-10-08T20:58:47.282Z,45.70
2022-10-08T21:01:23.480Z,44.60
2022-10-08T21:03:56.479Z,44.00
2022-10-08T21:06:31.790Z,44.40
2022-10-08T21:09:06.850Z,43.60
2022-10-08T21:11:43.488Z,43.60
2022-10-08T21:14:18.235Z,44.10
2022-10-08T21:16:50.521Z,41.00
2022-10-08T21:19:26.241Z,42.60
2022-10-08T21:21:59.429Z,41.70
2022-10-08T21:24:31.434Z,43.00
2022-10-08T21:27:03.539Z,43.30
2022-10-08T21:29:38.188Z,40.20
2022-10-08T21:32:10.784Z,40.90
2022-10-08T21:34:42.511Z,40.50
2022-10-08T21:37:16.237Z,38.60
2022-10-08T21:39:48.996Z,37.40
2022-10-08T21:42:21.584Z,35.70
2022-10-08T21:44:55.162Z,33.10
2022-10-08T21:47:29.047Z,32.60
2022-10-08T21:50:02.385Z,30.40
2022-10-08T21:52:35.778Z,28.50
2022-10-08T21:55:09.839Z,24.60
2022-10-08T21:57:44.846Z,23.50
2022-10-08T22:00:18.234Z,22.30
2022-10-08T22:02:51.576Z,22.10
2022-10-08T22:05:29.987Z,19.70
2022-10-08T22:08:03.443Z,18.30
2022-10-08T22:10:39.609Z,17.30
2022-10-08T22:13:12.973Z,16.30
2022-10-08T22:15:53.919Z,15.50
2022-10-08T22:18:31.928Z,14.60
2022-10-08T22:21:07.583Z,14.80
2022-10-08T22:23:39.959Z,13.20
2022-10-08T22:26:14.393Z,14.40
2022-10-08T22:28:48.575Z,14.60
2022-10-08T22:31:23.352Z,14.40
2022-10-08T22:33:57.488Z,13.90
2022-10-08T22:36:34.191Z,14.40
2022-10-08T22:39:10.123Z,13.90
2022-10-08T22:41:42.453Z,13.60
2022-10-08T22:44:15.031Z,9.90
2022-10-08T22:46:47.543Z,8.50
2022-10-08T22:49:22.098Z,8.80
2022-10-08T22:51:55.537Z,7.50
2022-10-08T22:54:27.816Z,8.30
2022-10-08T22:57:02.645Z,8.10
2022-10-08T22:59:35.208Z,7.50
2022-10-08T23:02:08.359Z,8.20
2022-10-08T23:04:41.357Z,9.30
2022-10-08T23:07:14.864Z,7.30
2022-10-08T23:09:46.965Z,6.10
2022-10-08T23:12:20.041Z,4.60
2022-10-08T23:14:52.016Z,5.70
2022-10-08T23:17:24.635Z,5.50
2022-10-08T23:19:56.983Z,5.30
2022-10-08T23:22:30.806Z,5.50
2022-10-08T23:25:04.713Z,5.30
2022-10-08T23:27:38.321Z,6.20
2022-10-08T23:30:31.373Z,5.20
2022-10-08T23:33:07.651Z,5.80
2022-10-08T23:35:45.621Z,6.50
2022-10-08T23:38:24.971Z,6.90
2022-10-08T23:41:03.786Z,6.90
2022-10-08T23:43:38.436Z,4.70
2022-10-08T23:46:13.546Z,6.90
2022-10-08T23:48:45.905Z,5.90
2022-10-08T23:51:20.648Z,6.50
2022-10-08T23:53:55.065Z,7.10
2022-10-08T23:56:27.742Z,5.10
2022-10-08T23:59:01.579Z,7.80
